sensor_id;sensor_type;location;lat;lon;timestamp;pressure;altitude;pressure_sealevel;temperature;humidity
8049;BME280;20935;42.660;23.342;2023-04-19T00:01:09;94353.69;;;10.85;100.00
8049;BME280;20935;42.660;23.342;2023-04-19T00:03:55;94357.25;;;10.75;100.00
8049;BME280;20935;42.660;23.342;2023-04-19T00:06:41;94352.16;;;10.84;100.00
8049;BME280;20935;42.660;23.342;2023-04-19T00:09:26;94345.50;;;10.69;100.00
8049;BME280;20935;42.660;23.342;2023-04-19T00:12:13;94348.44;;;10.78;100.00
8049;BME280;20935;42.660;23.342;2023-04-19T00:14:58;94350.81;;;10.99;100.00
8049;BME280;20935;42.660;23.342;2023-04-19T00:17:44;94344.41;;;10.93;100.00
8049;BME280;20935;42.660;23.342;2023-04-19T00:20:29;94346.56;;;10.75;100.00
8049;BME280;20935;42.660;23.342;2023-04-19T00:23:15;94341.66;;;10.70;100.00
8049;BME280;20935;42.660;23.342;2023-04-19T00:26:01;94339.09;;;10.59;100.00
8049;BME280;20935;42.660;23.342;2023-04-19T00:28:48;94342.69;;;10.49;100.00
8049;BME280;20935;42.660;23.342;2023-04-19T00:31:34;94340.59;;;10.64;100.00
8049;BME280;20935;42.660;23.342;2023-04-19T00:34:19;94328.38;;;10.90;100.00
8049;BME280;20935;42.660;23.342;2023-04-19T00:37:04;94344.69;;;10.72;100.00
8049;BME280;20935;42.660;23.342;2023-04-19T00:39:50;94335.53;;;10.69;100.00
8049;BME280;20935;42.660;23.342;2023-04-19T00:42:35;94327.88;;;10.98;100.00
8049;BME280;20935;42.660;23.342;2023-04-19T00:45:23;94334.97;;;11.08;100.00
8049;BME280;20935;42.660;23.342;2023-04-19T00:48:09;94330.59;;;10.95;100.00
8049;BME280;20935;42.660;23.342;2023-04-19T00:50:54;94330.91;;;10.73;100.00
8049;BME280;20935;42.660;23.342;2023-04-19T00:53:40;94336.16;;;10.80;100.00
8049;BME280;20935;42.660;23.342;2023-04-19T00:56:26;94324.28;;;10.81;100.00
8049;BME280;20935;42.660;23.342;2023-04-19T00:59:13;94322.06;;;10.76;100.00
8049;BME280;20935;42.660;23.342;2023-04-19T01:02:00;94334.69;;;10.76;100.00
8049;BME280;20935;42.660;23.342;2023-04-19T01:04:46;94315.81;;;10.87;100.00
8049;BME280;20935;42.660;23.342;2023-04-19T01:07:32;94314.16;;;10.93;100.00
8049;BME280;20935;42.660;23.342;2023-04-19T01:10:17;94309.41;;;10.77;100.00
8049;BME280;20935;42.660;23.342;2023-04-19T01:13:03;94310.28;;;10.70;100.00
8049;BME280;20935;42.660;23.342;2023-04-19T01:15:48;94315.97;;;10.99;100.00
8049;BME280;20935;42.660;23.342;2023-04-19T01:18:35;94317.22;;;10.95;100.00
8049;BME280;20935;42.660;23.342;2023-04-19T01:21:22;94311.66;;;10.82;100.00
8049;BME280;20935;42.660;23.342;2023-04-19T01:24:09;94321.13;;;10.60;100.00
8049;BME280;20935;42.660;23.342;2023-04-19T01:26:54;94316.25;;;10.81;100.00
8049;BME280;20935;42.660;23.342;2023-04-19T01:29:40;94316.91;;;10.89;100.00
8049;BME280;20935;42.660;23.342;2023-04-19T01:32:25;94318.22;;;10.77;100.00
8049;BME280;20935;42.660;23.342;2023-04-19T01:35:11;94318.47;;;10.87;100.00
8049;BME280;20935;42.660;23.342;2023-04-19T01:37:57;94318.66;;;10.72;100.00
8049;BME280;20935;42.660;23.342;2023-04-19T01:40:43;94314.41;;;10.75;100.00
8049;BME280;20935;42.660;23.342;2023-04-19T01:43:29;94306.31;;;10.52;100.00
8049;BME280;20935;42.660;23.342;2023-04-19T01:46:14;94310.88;;;10.55;100.00
8049;BME280;20935;42.660;23.342;2023-04-19T01:48:59;94317.69;;;10.59;100.00
8049;BME280;20935;42.660;23.342;2023-04-19T01:51:45;94309.41;;;10.50;100.00
8049;BME280;20935;42.660;23.342;2023-04-19T01:54:30;94308.75;;;10.69;100.00
8049;BME280;20935;42.660;23.342;2023-04-19T01:57:17;94304.06;;;10.77;100.00
8049;BME280;20935;42.660;23.342;2023-04-19T02:00:04;94301.50;;;10.70;100.00
8049;BME280;20935;42.660;23.342;2023-04-19T02:02:50;94302.69;;;10.65;100.00
8049;BME280;20935;42.660;23.342;2023-04-19T02:05:37;94302.97;;;10.44;100.00
8049;BME280;20935;42.660;23.342;2023-04-19T02:08:23;94305.94;;;10.53;100.00
8049;BME280;20935;42.660;23.342;2023-04-19T02:11:09;94305.47;;;10.58;100.00
8049;BME280;20935;42.660;23.342;2023-04-19T02:13:58;94309.88;;;10.15;100.00
8049;BME280;20935;42.660;23.342;2023-04-19T02:16:44;94302.09;;;10.24;100.00
8049;BME280;20935;42.660;23.342;2023-04-19T02:19:29;94307.84;;;10.22;100.00
8049;BME280;20935;42.660;23.342;2023-04-19T02:22:15;94300.66;;;10.16;100.00
8049;BME280;20935;42.660;23.342;2023-04-19T02:25:00;94296.97;;;10.03;100.00
8049;BME280;20935;42.660;23.342;2023-04-19T02:27:46;94296.16;;;9.72;100.00
8049;BME280;20935;42.660;23.342;2023-04-19T02:30:32;94287.31;;;9.78;100.00
8049;BME280;20935;42.660;23.342;2023-04-19T02:33:17;94281.50;;;9.83;100.00
8049;BME280;20935;42.660;23.342;2023-04-19T02:36:03;94284.22;;;9.80;100.00
8049;BME280;20935;42.660;23.342;2023-04-19T02:38:48;94301.56;;;10.02;100.00
8049;BME280;20935;42.660;23.342;2023-04-19T02:41:34;94294.94;;;10.14;100.00
8049;BME280;20935;42.660;23.342;2023-04-19T02:44:19;94302.56;;;10.15;100.00
8049;BME280;20935;42.660;23.342;2023-04-19T02:47:06;94303.06;;;10.03;100.00
8049;BME280;20935;42.660;23.342;2023-04-19T02:49:52;94293.16;;;10.00;100.00
8049;BME280;20935;42.660;23.342;2023-04-19T02:52:37;94293.66;;;9.91;100.00
8049;BME280;20935;42.660;23.342;2023-04-19T02:55:23;94288.84;;;9.76;100.00
8049;BME280;20935;42.660;23.342;2023-04-19T02:58:08;94292.09;;;9.94;100.00
8049;BME280;20935;42.660;23.342;2023-04-19T03:00:54;94294.41;;;9.92;100.00
8049;BME280;20935;42.660;23.342;2023-04-19T03:03:41;94289.94;;;9.82;100.00
8049;BME280;20935;42.660;23.342;2023-04-19T03:06:26;94296.13;;;9.75;100.00
8049;BME280;20935;42.660;23.342;2023-04-19T03:09:11;94301.38;;;9.86;100.00
8049;BME280;20935;42.660;23.342;2023-04-19T03:11:57;94295.53;;;9.95;100.00
8049;BME280;20935;42.660;23.342;2023-04-19T03:14:42;94289.81;;;9.93;100.00
8049;BME280;20935;42.660;23.342;2023-04-19T03:17:28;94294.69;;;9.67;100.00
8049;BME280;20935;42.660;23.342;2023-04-19T03:20:14;94288.09;;;9.79;100.00
8049;BME280;20935;42.660;23.342;2023-04-19T03:23:01;94295.78;;;9.73;100.00
8049;BME280;20935;42.660;23.342;2023-04-19T03:25:46;94293.19;;;9.66;100.00
8049;BME280;20935;42.660;23.342;2023-04-19T03:28:32;94291.22;;;9.70;100.00
8049;BME280;20935;42.660;23.342;2023-04-19T03:31:17;94289.47;;;9.53;100.00
8049;BME280;20935;42.660;23.342;2023-04-19T03:34:02;94292.16;;;9.53;100.00
8049;BME280;20935;42.660;23.342;2023-04-19T03:36:49;94298.53;;;9.66;100.00
8049;BME280;20935;42.660;23.342;2023-04-19T03:39:34;94290.16;;;9.61;100.00
8049;BME280;20935;42.660;23.342;2023-04-19T03:42:20;94300.06;;;9.64;100.00
8049;BME280;20935;42.660;23.342;2023-04-19T03:45:06;94290.03;;;9.75;100.00
8049;BME280;20935;42.660;23.342;2023-04-19T03:47:52;94290.81;;;9.72;100.00
8049;BME280;20935;42.660;23.342;2023-04-19T03:50:37;94289.66;;;9.73;100.00
8049;BME280;20935;42.660;23.342;2023-04-19T03:53:24;94289.47;;;9.53;100.00
8049;BME280;20935;42.660;23.342;2023-04-19T03:56:09;94281.38;;;9.60;100.00
8049;BME280;20935;42.660;23.342;2023-04-19T03:58:55;94283.84;;;9.81;100.00
8049;BME280;20935;42.660;23.342;2023-04-19T04:01:40;94283.19;;;9.70;100.00
8049;BME280;20935;42.660;23.342;2023-04-19T04:04:26;94277.84;;;9.70;100.00
8049;BME280;20935;42.660;23.342;2023-04-19T04:07:11;94287.81;;;9.66;100.00
8049;BME280;20935;42.660;23.342;2023-04-19T04:09:58;94282.72;;;9.41;100.00
8049;BME280;20935;42.660;23.342;2023-04-19T04:12:43;94293.22;;;9.63;100.00
8049;BME280;20935;42.660;23.342;2023-04-19T04:15:29;94300.78;;;9.68;100.00
8049;BME280;20935;42.660;23.342;2023-04-19T04:18:14;94298.38;;;9.80;100.00
8049;BME280;20935;42.660;23.342;2023-04-19T04:21:00;94303.47;;;10.02;100.00
8049;BME280;20935;42.660;23.342;2023-04-19T04:23:45;94302.13;;;9.86;100.00
8049;BME280;20935;42.660;23.342;2023-04-19T04:26:33;94298.25;;;9.91;100.00
8049;BME280;20935;42.660;23.342;2023-04-19T04:29:22;94297.06;;;9.58;100.00
8049;BME280;20935;42.660;23.342;2023-04-19T04:32:07;94306.16;;;9.64;100.00
8049;BME280;20935;42.660;23.342;2023-04-19T04:34:54;94312.06;;;9.49;100.00
8049;BME280;20935;42.660;23.342;2023-04-19T04:37:39;94310.94;;;9.83;100.00
8049;BME280;20935;42.660;23.342;2023-04-19T04:40:25;94315.63;;;9.72;100.00
8049;BME280;20935;42.660;23.342;2023-04-19T04:43:12;94311.78;;;9.36;100.00
8049;BME280;20935;42.660;23.342;2023-04-19T04:45:57;94315.38;;;9.60;100.00
8049;BME280;20935;42.660;23.342;2023-04-19T04:48:44;94307.66;;;9.69;100.00
8049;BME280;20935;42.660;23.342;2023-04-19T04:51:29;94303.22;;;9.55;100.00
8049;BME280;20935;42.660;23.342;2023-04-19T04:54:15;94312.84;;;9.46;100.00
8049;BME280;20935;42.660;23.342;2023-04-19T04:57:00;94314.41;;;9.43;100.00
8049;BME280;20935;42.660;23.342;2023-04-19T04:59:48;94316.19;;;9.57;100.00
8049;BME280;20935;42.660;23.342;2023-04-19T05:02:33;94311.84;;;9.70;100.00
8049;BME280;20935;42.660;23.342;2023-04-19T05:05:19;94311.44;;;9.75;100.00
8049;BME280;20935;42.660;23.342;2023-04-19T05:08:04;94314.50;;;9.73;100.00
8049;BME280;20935;42.660;23.342;2023-04-19T05:10:50;94318.91;;;9.90;100.00
8049;BME280;20935;42.660;23.342;2023-04-19T05:13:35;94325.91;;;9.77;100.00
8049;BME280;20935;42.660;23.342;2023-04-19T05:16:22;94325.22;;;9.70;100.00
8049;BME280;20935;42.660;23.342;2023-04-19T05:19:07;94320.19;;;9.75;100.00
8049;BME280;20935;42.660;23.342;2023-04-19T05:21:53;94317.81;;;9.84;100.00
8049;BME280;20935;42.660;23.342;2023-04-19T05:24:39;94322.75;;;9.86;100.00
8049;BME280;20935;42.660;23.342;2023-04-19T05:27:24;94317.47;;;9.82;100.00
8049;BME280;20935;42.660;23.342;2023-04-19T05:30:10;94323.88;;;9.88;100.00
8049;BME280;20935;42.660;23.342;2023-04-19T05:32:57;94317.72;;;9.95;100.00
8049;BME280;20935;42.660;23.342;2023-04-19T05:35:43;94334.53;;;10.29;100.00
8049;BME280;20935;42.660;23.342;2023-04-19T05:38:28;94326.28;;;10.13;100.00
8049;BME280;20935;42.660;23.342;2023-04-19T05:41:14;94338.88;;;10.50;100.00
8049;BME280;20935;42.660;23.342;2023-04-19T05:43:59;94332.34;;;10.51;100.00
8049;BME280;20935;42.660;23.342;2023-04-19T05:46:45;94328.16;;;10.50;100.00
8049;BME280;20935;42.660;23.342;2023-04-19T05:49:32;94329.41;;;10.42;100.00
8049;BME280;20935;42.660;23.342;2023-04-19T05:52:17;94341.59;;;10.43;100.00
8049;BME280;20935;42.660;23.342;2023-04-19T05:55:03;94332.00;;;10.49;100.00
8049;BME280;20935;42.660;23.342;2023-04-19T05:57:48;94337.53;;;10.31;100.00
8049;BME280;20935;42.660;23.342;2023-04-19T06:00:34;94338.06;;;10.19;100.00
8049;BME280;20935;42.660;23.342;2023-04-19T06:03:20;94339.44;;;10.65;100.00
8049;BME280;20935;42.660;23.342;2023-04-19T06:06:07;94334.06;;;10.65;100.00
8049;BME280;20935;42.660;23.342;2023-04-19T06:08:53;94335.53;;;10.69;100.00
8049;BME280;20935;42.660;23.342;2023-04-19T06:11:38;94339.38;;;10.68;100.00
8049;BME280;20935;42.660;23.342;2023-04-19T06:14:29;94329.72;;;11.01;100.00
8049;BME280;20935;42.660;23.342;2023-04-19T06:17:14;94330.34;;;10.86;100.00
8049;BME280;20935;42.660;23.342;2023-04-19T06:19:59;94339.81;;;10.94;100.00
8049;BME280;20935;42.660;23.342;2023-04-19T06:22:47;94337.16;;;11.17;100.00
8049;BME280;20935;42.660;23.342;2023-04-19T06:25:33;94337.34;;;11.03;100.00
8049;BME280;20935;42.660;23.342;2023-04-19T06:28:18;94335.91;;;10.98;100.00
8049;BME280;20935;42.660;23.342;2023-04-19T06:31:04;94338.03;;;11.10;100.00
8049;BME280;20935;42.660;23.342;2023-04-19T06:33:49;94336.91;;;11.31;100.00
8049;BME280;20935;42.660;23.342;2023-04-19T06:36:35;94337.69;;;11.55;100.00
8049;BME280;20935;42.660;23.342;2023-04-19T06:39:21;94342.19;;;11.61;100.00
8049;BME280;20935;42.660;23.342;2023-04-19T06:42:06;94344.22;;;11.54;100.00
8049;BME280;20935;42.660;23.342;2023-04-19T06:44:52;94348.25;;;11.65;100.00
8049;BME280;20935;42.660;23.342;2023-04-19T06:47:39;94348.66;;;11.64;100.00
8049;BME280;20935;42.660;23.342;2023-04-19T06:50:27;94340.88;;;11.73;100.00
8049;BME280;20935;42.660;23.342;2023-04-19T06:53:12;94340.41;;;11.98;100.00
8049;BME280;20935;42.660;23.342;2023-04-19T06:56:00;94341.81;;;12.26;100.00
8049;BME280;20935;42.660;23.342;2023-04-19T06:58:47;94352.75;;;12.35;100.00
8049;BME280;20935;42.660;23.342;2023-04-19T07:01:32;94357.50;;;12.47;100.00
8049;BME280;20935;42.660;23.342;2023-04-19T07:04:17;94352.34;;;12.16;100.00
8049;BME280;20935;42.660;23.342;2023-04-19T07:07:03;94354.34;;;12.32;100.00
8049;BME280;20935;42.660;23.342;2023-04-19T07:09:48;94355.72;;;12.20;100.00
8049;BME280;20935;42.660;23.342;2023-04-19T07:12:35;94361.00;;;12.24;100.00
8049;BME280;20935;42.660;23.342;2023-04-19T07:15:20;94354.53;;;12.41;100.00
8049;BME280;20935;42.660;23.342;2023-04-19T07:18:06;94363.00;;;12.00;100.00
8049;BME280;20935;42.660;23.342;2023-04-19T07:20:53;94367.81;;;12.09;100.00
8049;BME280;20935;42.660;23.342;2023-04-19T07:23:39;94359.69;;;12.12;100.00
8049;BME280;20935;42.660;23.342;2023-04-19T07:26:24;94363.91;;;12.13;100.00
8049;BME280;20935;42.660;23.342;2023-04-19T07:29:11;94357.81;;;11.90;100.00
8049;BME280;20935;42.660;23.342;2023-04-19T07:31:56;94363.69;;;12.24;100.00
8049;BME280;20935;42.660;23.342;2023-04-19T07:34:44;94353.84;;;12.17;100.00
8049;BME280;20935;42.660;23.342;2023-04-19T07:37:29;94356.53;;;11.98;100.00
8049;BME280;20935;42.660;23.342;2023-04-19T07:40:15;94355.06;;;11.93;100.00
8049;BME280;20935;42.660;23.342;2023-04-19T07:43:00;94373.00;;;12.39;100.00
8049;BME280;20935;42.660;23.342;2023-04-19T07:45:50;94357.00;;;12.12;100.00
8049;BME280;20935;42.660;23.342;2023-04-19T07:48:35;94360.53;;;12.29;100.00
8049;BME280;20935;42.660;23.342;2023-04-19T07:51:21;94367.53;;;12.23;100.00
8049;BME280;20935;42.660;23.342;2023-04-19T07:54:07;94370.59;;;12.25;100.00
8049;BME280;20935;42.660;23.342;2023-04-19T07:56:53;94359.75;;;12.09;100.00
8049;BME280;20935;42.660;23.342;2023-04-19T07:59:40;94360.78;;;12.15;100.00
8049;BME280;20935;42.660;23.342;2023-04-19T08:02:27;94362.06;;;12.50;100.00
8049;BME280;20935;42.660;23.342;2023-04-19T08:05:12;94361.63;;;12.51;100.00
8049;BME280;20935;42.660;23.342;2023-04-19T08:08:01;94361.47;;;12.58;100.00
8049;BME280;20935;42.660;23.342;2023-04-19T08:10:46;94359.56;;;12.39;100.00
8049;BME280;20935;42.660;23.342;2023-04-19T08:13:32;94361.63;;;12.51;100.00
8049;BME280;20935;42.660;23.342;2023-04-19T08:16:17;94362.06;;;12.50;100.00
8049;BME280;20935;42.660;23.342;2023-04-19T08:19:04;94355.38;;;12.58;100.00
8049;BME280;20935;42.660;23.342;2023-04-19T08:21:49;94366.03;;;12.61;100.00
8049;BME280;20935;42.660;23.342;2023-04-19T08:24:35;94365.69;;;12.59;100.00
8049;BME280;20935;42.660;23.342;2023-04-19T08:27:23;94363.25;;;12.85;100.00
8049;BME280;20935;42.660;23.342;2023-04-19T08:30:10;94360.97;;;12.83;100.00
8049;BME280;20935;42.660;23.342;2023-04-19T08:32:55;94362.81;;;13.22;100.00
8049;BME280;20935;42.660;23.342;2023-04-19T08:35:42;94351.16;;;12.93;100.00
8049;BME280;20935;42.660;23.342;2023-04-19T08:38:28;94359.88;;;12.81;100.00
8049;BME280;20935;42.660;23.342;2023-04-19T08:41:14;94343.94;;;12.90;100.00
8049;BME280;20935;42.660;23.342;2023-04-19T08:44:02;94351.75;;;13.36;100.00
8049;BME280;20935;42.660;23.342;2023-04-19T08:46:49;94345.19;;;13.53;100.00
8049;BME280;20935;42.660;23.342;2023-04-19T08:49:35;94344.16;;;13.31;100.00
8049;BME280;20935;42.660;23.342;2023-04-19T08:52:23;94341.97;;;13.42;100.00
8049;BME280;20935;42.660;23.342;2023-04-19T08:55:09;94336.75;;;13.68;99.15
8049;BME280;20935;42.660;23.342;2023-04-19T08:57:55;94338.09;;;13.76;94.89
8049;BME280;20935;42.660;23.342;2023-04-19T09:00:41;94337.06;;;13.70;95.39
8049;BME280;20935;42.660;23.342;2023-04-19T09:03:26;94345.91;;;14.15;91.88
8049;BME280;20935;42.660;23.342;2023-04-19T09:06:12;94338.38;;;13.49;96.18
8049;BME280;20935;42.660;23.342;2023-04-19T09:09:13;94340.53;;;13.70;93.41
8049;BME280;20935;42.660;23.342;2023-04-19T09:11:59;94337.59;;;13.81;93.50
8049;BME280;20935;42.660;23.342;2023-04-19T09:14:45;94347.19;;;14.10;91.74
8049;BME280;20935;42.660;23.342;2023-04-19T09:17:31;94330.19;;;13.69;93.28
8049;BME280;20935;42.660;23.342;2023-04-19T09:20:34;94336.78;;;13.96;91.10
8049;BME280;20935;42.660;23.342;2023-04-19T09:23:20;94317.50;;;13.98;87.75
8049;BME280;20935;42.660;23.342;2023-04-19T09:26:07;94330.81;;;13.60;88.74
8049;BME280;20935;42.660;23.342;2023-04-19T09:28:56;94325.59;;;13.69;91.29
8049;BME280;20935;42.660;23.342;2023-04-19T09:31:55;94324.28;;;13.74;91.12
8049;BME280;20935;42.660;23.342;2023-04-19T09:34:49;94324.91;;;13.94;88.81
8049;BME280;20935;42.660;23.342;2023-04-19T09:37:36;94315.38;;;13.77;89.67
8049;BME280;20935;42.660;23.342;2023-04-19T09:40:23;94320.91;;;13.86;87.55
8049;BME280;20935;42.660;23.342;2023-04-19T09:43:09;94322.03;;;14.30;84.45
8049;BME280;20935;42.660;23.342;2023-04-19T09:45:55;94336.03;;;14.53;83.52
8049;BME280;20935;42.660;23.342;2023-04-19T09:48:40;94314.72;;;15.10;79.73
8049;BME280;20935;42.660;23.342;2023-04-19T09:51:39;94315.81;;;15.12;79.02
8049;BME280;20935;42.660;23.342;2023-04-19T09:54:25;94311.72;;;14.95;76.08
8049;BME280;20935;42.660;23.342;2023-04-19T09:57:13;94309.88;;;14.92;76.02
8049;BME280;20935;42.660;23.342;2023-04-19T10:00:01;94304.34;;;14.70;78.19
8049;BME280;20935;42.660;23.342;2023-04-19T10:02:51;94305.22;;;15.05;76.02
8049;BME280;20935;42.660;23.342;2023-04-19T10:05:41;94298.00;;;15.15;76.46
8049;BME280;20935;42.660;23.342;2023-04-19T10:08:27;94287.94;;;15.40;73.71
8049;BME280;20935;42.660;23.342;2023-04-19T10:11:13;94318.69;;;15.68;73.28
8049;BME280;20935;42.660;23.342;2023-04-19T10:13:59;94297.41;;;15.45;73.13
8049;BME280;20935;42.660;23.342;2023-04-19T10:16:47;94298.47;;;15.00;72.91
8049;BME280;20935;42.660;23.342;2023-04-19T10:19:34;94298.06;;;15.49;70.10
8049;BME280;20935;42.660;23.342;2023-04-19T10:22:20;94287.81;;;15.44;68.86
8049;BME280;20935;42.660;23.342;2023-04-19T10:25:14;94297.03;;;15.81;69.28
8049;BME280;20935;42.660;23.342;2023-04-19T10:28:00;94288.41;;;15.73;72.35
8049;BME280;20935;42.660;23.342;2023-04-19T10:30:52;94296.66;;;15.57;71.08
8049;BME280;20935;42.660;23.342;2023-04-19T10:33:40;94309.63;;;15.37;70.98
8049;BME280;20935;42.660;23.342;2023-04-19T10:36:26;94284.78;;;15.42;70.12
8049;BME280;20935;42.660;23.342;2023-04-19T10:39:39;94285.28;;;15.96;67.73
8049;BME280;20935;42.660;23.342;2023-04-19T10:45:58;94275.56;;;15.65;67.60
8049;BME280;20935;42.660;23.342;2023-04-19T10:48:53;94279.09;;;15.27;66.30
8049;BME280;20935;42.660;23.342;2023-04-19T10:51:47;94277.03;;;15.44;68.92
8049;BME280;20935;42.660;23.342;2023-04-19T10:54:38;94264.22;;;15.23;69.95
8049;BME280;20935;42.660;23.342;2023-04-19T10:57:23;94275.41;;;15.81;63.45
8049;BME280;20935;42.660;23.342;2023-04-19T11:00:17;94272.25;;;15.61;65.94
8049;BME280;20935;42.660;23.342;2023-04-19T11:06:23;94256.03;;;15.61;66.56
8049;BME280;20935;42.660;23.342;2023-04-19T11:09:10;94268.41;;;15.83;65.85
8049;BME280;20935;42.660;23.342;2023-04-19T11:12:02;94247.34;;;15.78;66.54
8049;BME280;20935;42.660;23.342;2023-04-19T11:14:50;94258.19;;;15.66;64.08
8049;BME280;20935;42.660;23.342;2023-04-19T11:17:36;94258.91;;;16.22;62.90
8049;BME280;20935;42.660;23.342;2023-04-19T11:20:22;94255.41;;;16.13;61.75
8049;BME280;20935;42.660;23.342;2023-04-19T11:23:16;94258.78;;;16.48;59.78
8049;BME280;20935;42.660;23.342;2023-04-19T11:26:01;94266.00;;;16.29;59.15
8049;BME280;20935;42.660;23.342;2023-04-19T11:28:47;94251.50;;;16.14;60.65
8049;BME280;20935;42.660;23.342;2023-04-19T11:31:33;94251.91;;;16.03;59.76
8049;BME280;20935;42.660;23.342;2023-04-19T11:34:21;94256.94;;;16.44;58.00
8049;BME280;20935;42.660;23.342;2023-04-19T11:37:08;94243.31;;;16.48;57.12
8049;BME280;20935;42.660;23.342;2023-04-19T11:39:55;94269.09;;;16.40;57.65
8049;BME280;20935;42.660;23.342;2023-04-19T11:42:40;94259.31;;;16.64;57.50
8049;BME280;20935;42.660;23.342;2023-04-19T11:45:27;94253.00;;;16.36;57.67
8049;BME280;20935;42.660;23.342;2023-04-19T11:48:13;94250.81;;;16.22;56.85
8049;BME280;20935;42.660;23.342;2023-04-19T11:51:00;94241.31;;;16.39;55.71
8049;BME280;20935;42.660;23.342;2023-04-19T11:53:45;94248.75;;;16.88;55.63
8049;BME280;20935;42.660;23.342;2023-04-19T11:56:32;94246.31;;;16.81;54.21
8049;BME280;20935;42.660;23.342;2023-04-19T11:59:18;94241.09;;;16.86;54.06
8049;BME280;20935;42.660;23.342;2023-04-19T12:02:05;94245.75;;;16.86;52.78
8049;BME280;20935;42.660;23.342;2023-04-19T12:04:50;94241.63;;;16.72;52.24
8049;BME280;20935;42.660;23.342;2023-04-19T12:07:36;94230.06;;;17.12;52.98
8049;BME280;20935;42.660;23.342;2023-04-19T12:10:21;94228.94;;;17.00;53.17
8049;BME280;20935;42.660;23.342;2023-04-19T12:13:17;94209.63;;;16.71;53.45
8049;BME280;20935;42.660;23.342;2023-04-19T12:16:02;94215.09;;;16.89;52.59
8049;BME280;20935;42.660;23.342;2023-04-19T12:18:49;94212.78;;;17.18;52.08
8049;BME280;20935;42.660;23.342;2023-04-19T12:21:35;94220.31;;;17.42;51.61
8049;BME280;20935;42.660;23.342;2023-04-19T12:24:20;94214.75;;;17.45;49.86
8049;BME280;20935;42.660;23.342;2023-04-19T12:27:08;94217.63;;;17.51;49.24
8049;BME280;20935;42.660;23.342;2023-04-19T12:29:55;94205.41;;;17.28;49.83
8049;BME280;20935;42.660;23.342;2023-04-19T12:32:41;94210.69;;;17.41;51.20
8049;BME280;20935;42.660;23.342;2023-04-19T12:35:27;94214.31;;;17.56;49.92
8049;BME280;20935;42.660;23.342;2023-04-19T12:38:12;94204.13;;;17.87;48.25
8049;BME280;20935;42.660;23.342;2023-04-19T12:40:58;94210.53;;;18.08;47.87
8049;BME280;20935;42.660;23.342;2023-04-19T12:43:43;94199.16;;;17.95;49.16
8049;BME280;20935;42.660;23.342;2023-04-19T12:46:30;94212.78;;;18.27;49.84
8049;BME280;20935;42.660;23.342;2023-04-19T12:49:17;94209.06;;;17.98;50.84
8049;BME280;20935;42.660;23.342;2023-04-19T12:52:05;94202.56;;;18.04;50.64
8049;BME280;20935;42.660;23.342;2023-04-19T12:54:51;94203.31;;;17.41;53.05
8049;BME280;20935;42.660;23.342;2023-04-19T12:57:37;94203.59;;;17.07;53.42
8049;BME280;20935;42.660;23.342;2023-04-19T13:00:23;94207.56;;;17.51;52.61
8049;BME280;20935;42.660;23.342;2023-04-19T13:03:10;94194.75;;;17.43;53.06
8049;BME280;20935;42.660;23.342;2023-04-19T13:05:56;94199.63;;;16.89;54.62
8049;BME280;20935;42.660;23.342;2023-04-19T13:08:41;94223.06;;;15.78;61.82
8049;BME280;20935;42.660;23.342;2023-04-19T13:11:27;94227.09;;;15.61;67.46
8049;BME280;20935;42.660;23.342;2023-04-19T13:14:12;94226.34;;;15.61;70.50
8049;BME280;20935;42.660;23.342;2023-04-19T13:16:58;94232.63;;;15.11;67.78
8049;BME280;20935;42.660;23.342;2023-04-19T13:19:45;94235.78;;;14.96;72.21
8049;BME280;20935;42.660;23.342;2023-04-19T13:22:30;94247.84;;;14.67;70.76
8049;BME280;20935;42.660;23.342;2023-04-19T13:25:15;94244.22;;;14.19;74.29
8049;BME280;20935;42.660;23.342;2023-04-19T13:28:01;94237.88;;;14.13;74.50
8049;BME280;20935;42.660;23.342;2023-04-19T13:30:46;94239.63;;;14.32;76.65
8049;BME280;20935;42.660;23.342;2023-04-19T13:33:32;94242.91;;;14.52;72.56
8049;BME280;20935;42.660;23.342;2023-04-19T13:36:19;94230.94;;;14.41;75.72
8049;BME280;20935;42.660;23.342;2023-04-19T13:39:04;94224.06;;;14.11;80.36
8049;BME280;20935;42.660;23.342;2023-04-19T13:41:50;94227.94;;;14.64;79.73
8049;BME280;20935;42.660;23.342;2023-04-19T13:44:35;94226.19;;;14.70;79.01
8049;BME280;20935;42.660;23.342;2023-04-19T13:47:21;94220.56;;;15.02;77.07
8049;BME280;20935;42.660;23.342;2023-04-19T13:50:07;94228.53;;;14.93;79.81
8049;BME280;20935;42.660;23.342;2023-04-19T13:52:54;94230.66;;;14.23;85.74
8049;BME280;20935;42.660;23.342;2023-04-19T13:55:40;94233.19;;;14.68;84.28
8049;BME280;20935;42.660;23.342;2023-04-19T13:58:25;94224.13;;;14.62;83.93
8049;BME280;20935;42.660;23.342;2023-04-19T14:01:11;94238.69;;;14.51;83.51
8049;BME280;20935;42.660;23.342;2023-04-19T14:03:56;94231.91;;;14.60;81.65
8049;BME280;20935;42.660;23.342;2023-04-19T14:06:42;94235.88;;;14.93;77.05
8049;BME280;20935;42.660;23.342;2023-04-19T14:09:29;94233.16;;;14.93;77.39
8049;BME280;20935;42.660;23.342;2023-04-19T14:12:14;94231.75;;;15.14;76.24
8049;BME280;20935;42.660;23.342;2023-04-19T14:15:00;94229.63;;;15.43;75.45
8049;BME280;20935;42.660;23.342;2023-04-19T14:17:45;94232.19;;;15.59;75.20
8049;BME280;20935;42.660;23.342;2023-04-19T14:20:30;94239.66;;;15.55;74.76
8049;BME280;20935;42.660;23.342;2023-04-19T14:23:16;94227.91;;;15.83;71.85
8049;BME280;20935;42.660;23.342;2023-04-19T14:26:03;94228.44;;;15.78;72.04
8049;BME280;20935;42.660;23.342;2023-04-19T14:28:48;94232.53;;;15.83;69.89
8049;BME280;20935;42.660;23.342;2023-04-19T14:31:33;94240.63;;;16.26;65.25
8049;BME280;20935;42.660;23.342;2023-04-19T14:34:19;94229.59;;;15.90;68.39
8049;BME280;20935;42.660;23.342;2023-04-19T14:37:04;94223.00;;;15.10;72.78
8049;BME280;20935;42.660;23.342;2023-04-19T14:39:50;94217.25;;;14.61;77.99
8049;BME280;20935;42.660;23.342;2023-04-19T14:42:37;94223.88;;;15.07;75.46